Time;durP1;ratioP1;P1;durP2;ratioP2;P2;SDS_P1;SDS_P2;PMS_P1;PMS_P2;Temp;Humidity;BMP_temperature;BMP_pressure;BME280_temperature;BME280_humidity;BME280_pressure;Samples;Min_cycle;Max_cycle;Signal;HPM_P1;HPM_P2
2022/12/15 00:39:14;;;;;;;51.50;37.75;;;-1.10;99.90;;;;;;5065543;28;20235;-77
2022/12/15 00:41:41;;;;;;;46.15;34.15;;;-1.10;99.90;;;;;;5073862;28;20211;-78
2022/12/15 00:44:08;;;;;;;59.10;33.28;;;-1.10;99.90;;;;;;5075323;28;20563;-78
2022/12/15 00:46:53;;;;;;;45.30;29.33;;;-1.10;99.90;;;;;;5073142;28;20311;-79
2022/12/15 01:22:56;;;;;;;42.92;31.45;;;-1.30;99.90;;;;;;5052880;28;20231;-78
2022/12/15 01:25:26;;;;;;;51.67;31.95;;;-1.30;99.90;;;;;;5047391;28;20283;-77
2022/12/15 01:27:55;;;;;;;47.25;31.17;;;-1.30;99.90;;;;;;5056292;28;20273;-77
2022/12/15 01:30:24;;;;;;;47.63;31.45;;;-1.40;99.90;;;;;;5073164;28;20228;-77
2022/12/15 01:32:52;;;;;;;54.03;32.22;;;-1.40;99.90;;;;;;5064012;28;20661;-78
2022/12/15 01:35:20;;;;;;;48.33;33.53;;;-1.40;99.90;;;;;;5073376;28;20273;-78
2022/12/15 01:37:47;;;;;;;49.70;33.08;;;-1.40;99.90;;;;;;5072587;28;20618;-77
2022/12/15 01:43:02;;;;;;;52.78;32.88;;;-1.30;99.90;;;;;;5046343;28;20230;-79
2022/12/15 01:45:56;;;;;;;52.92;34.95;;;-1.30;99.90;;;;;;5073164;28;20255;-80
2022/12/15 01:48:46;;;;;;;51.13;31.92;;;-1.40;99.90;;;;;;5073546;28;20223;-80
2022/12/15 01:51:19;;;;;;;44.67;31.55;;;-1.30;99.90;;;;;;5074520;28;20257;-78
2022/12/15 01:53:53;;;;;;;47.30;30.80;;;-1.30;99.90;;;;;;5073181;28;20288;-78
2022/12/15 01:56:21;;;;;;;52.35;31.73;;;-1.30;99.90;;;;;;5071266;28;20245;-78
2022/12/15 01:58:53;;;;;;;49.90;32.55;;;-1.30;99.90;;;;;;5059940;28;20224;-78
2022/12/15 02:04:19;;;;;;;48.47;33.65;;;-1.30;99.90;;;;;;5051522;28;20217;-78
2022/12/15 02:06:46;;;;;;;53.83;32.90;;;-1.30;99.90;;;;;;5052502;28;20240;-78
2022/12/15 02:09:14;;;;;;;49.03;31.30;;;-1.20;99.90;;;;;;5051830;28;20228;-79
2022/12/15 02:12:02;;;;;;;46.65;31.95;;;-1.20;99.90;;;;;;5052544;28;20618;-79
2022/12/15 02:14:45;;;;;;;53.97;32.03;;;-1.20;99.90;;;;;;5052202;28;20248;-78
2022/12/15 02:17:28;;;;;;;47.85;31.73;;;-1.20;99.90;;;;;;5051557;28;20282;-78
2022/12/15 02:21:01;;;;;;;;;;;;;;;;;;;;;
2022/12/15 02:24:23;;;;;;;44.85;30.95;;;-1.30;99.90;;;;;;5050034;28;20239;-77
2022/12/15 02:27:24;;;;;;;45.08;30.92;;;-1.30;99.90;;;;;;5052044;28;20247;-78
2022/12/15 02:30:26;;;;;;;46.05;30.67;;;-1.30;99.90;;;;;;5034335;28;20232;-77
2022/12/15 02:33:04;;;;;;;49.05;31.92;;;-1.40;99.90;;;;;;5031217;28;20657;-79
2022/12/15 02:35:44;;;;;;;46.45;30.55;;;-1.40;99.90;;;;;;5031749;28;20225;-78
2022/12/15 02:38:12;;;;;;;52.58;34.38;;;-1.40;99.90;;;;;;5031856;28;20217;-78
2022/12/15 02:40:41;;;;;;;46.53;31.00;;;-1.40;99.90;;;;;;5032644;28;20264;-79
2022/12/15 02:46:00;;;;;;;47.08;30.30;;;-1.40;99.90;;;;;;5057887;28;20225;-78
2022/12/15 02:48:34;;;;;;;45.85;32.08;;;-1.40;99.90;;;;;;5037125;28;20229;-77
2022/12/15 02:51:15;;;;;;;45.90;31.77;;;-1.40;99.90;;;;;;5035301;28;20228;-79
2022/12/15 02:54:05;;;;;;;40.50;27.67;;;-1.30;99.90;;;;;;5038759;28;20248;-79
2022/12/15 02:56:41;;;;;;;45.90;30.38;;;-1.30;99.90;;;;;;5070403;28;20628;-78
2022/12/15 02:59:14;;;;;;;40.22;27.13;;;-1.30;99.90;;;;;;5073175;28;20223;-79
2022/12/15 03:01:49;;;;;;;45.70;29.42;;;-1.30;99.90;;;;;;5061020;28;20238;-79
2022/12/15 03:04:17;;;;;;;47.00;26.55;;;-1.30;99.90;;;;;;5053909;28;20220;-78
2022/12/15 03:06:44;;;;;;;39.22;26.83;;;-1.30;99.90;;;;;;5055505;28;20256;-79
2022/12/15 03:09:12;;;;;;;39.53;27.45;;;-1.30;99.90;;;;;;5055826;28;20235;-79
2022/12/15 03:11:39;;;;;;;41.15;25.35;;;-1.30;99.90;;;;;;5055079;28;20235;-78
2022/12/15 03:14:06;;;;;;;45.08;26.08;;;-1.20;99.90;;;;;;5061451;28;20244;-78
2022/12/15 03:16:33;;;;;;;36.22;26.30;;;-1.20;99.90;;;;;;5075188;28;20255;-78
2022/12/15 03:19:02;;;;;;;38.33;26.95;;;-1.30;99.90;;;;;;5075898;28;20231;-78
2022/12/15 03:21:29;;;;;;;39.17;28.05;;;-1.30;99.90;;;;;;5075191;28;20220;-79
2022/12/15 03:23:56;;;;;;;47.85;29.70;;;-1.30;99.90;;;;;;5075680;28;20216;-79
2022/12/15 03:26:23;;;;;;;39.28;25.48;;;-1.20;99.90;;;;;;5075516;28;20273;-79
2022/12/15 03:28:50;;;;;;;38.60;27.50;;;-1.30;99.90;;;;;;5063464;28;20236;-77
2022/12/15 03:31:17;;;;;;;41.20;26.40;;;-1.30;99.90;;;;;;5052120;28;20612;-79
2022/12/15 03:33:44;;;;;;;42.35;29.10;;;-1.30;99.90;;;;;;5063496;28;20337;-79
2022/12/15 03:36:13;;;;;;;41.65;27.95;;;-1.40;99.90;;;;;;5055010;28;20874;-77
2022/12/15 03:38:40;;;;;;;42.83;28.27;;;-1.40;99.90;;;;;;5054410;28;20259;-78
2022/12/15 03:41:07;;;;;;;39.47;28.00;;;-1.50;99.90;;;;;;5054535;28;20224;-79
2022/12/15 03:43:34;;;;;;;39.38;27.02;;;-1.40;99.90;;;;;;5054676;28;20668;-80
2022/12/15 03:46:01;;;;;;;37.28;24.90;;;-1.40;99.90;;;;;;5045739;28;20530;-79
2022/12/15 03:48:28;;;;;;;35.63;26.38;;;-1.40;99.90;;;;;;5055095;28;20228;-79
2022/12/15 03:50:55;;;;;;;41.53;28.30;;;-1.40;99.90;;;;;;5054772;28;20231;-79
2022/12/15 03:53:24;;;;;;;40.15;28.35;;;-1.50;99.90;;;;;;5055741;28;20255;-77
2022/12/15 03:55:51;;;;;;;44.55;26.88;;;-1.50;99.90;;;;;;5035839;28;20644;-77
2022/12/15 03:58:18;;;;;;;38.25;25.80;;;-1.50;99.90;;;;;;5034825;28;20296;-77
2022/12/15 04:00:45;;;;;;;44.55;28.98;;;-1.50;99.90;;;;;;5035748;28;20233;-78
2022/12/15 04:03:12;;;;;;;41.78;26.42;;;-1.60;99.90;;;;;;5054602;28;20302;-78
2022/12/15 04:05:40;;;;;;;43.10;25.98;;;-1.50;99.90;;;;;;5053535;28;20225;-79
2022/12/15 04:08:07;;;;;;;39.42;28.05;;;-1.50;99.90;;;;;;5056295;28;20243;-80
2022/12/15 04:10:38;;;;;;;38.33;26.08;;;-1.50;99.90;;;;;;5054502;28;20321;-78
2022/12/15 04:13:06;;;;;;;35.88;25.83;;;-1.50;99.90;;;;;;5053571;28;20216;-80
2022/12/15 04:15:34;;;;;;;42.28;27.25;;;-1.50;99.90;;;;;;5052267;28;20259;-78
2022/12/15 04:18:04;;;;;;;44.03;28.33;;;-1.50;99.90;;;;;;5053966;28;20250;-78
2022/12/15 04:20:33;;;;;;;44.03;29.35;;;-1.60;99.90;;;;;;5053894;28;20574;-78
2022/12/15 04:23:00;;;;;;;39.47;28.30;;;-1.70;99.90;;;;;;5053884;28;20307;-80
2022/12/15 05:31:50;;;;;;;42.25;28.25;;;-2.10;99.90;;;;;;5058399;28;20285;-80
2022/12/15 05:34:19;;;;;;;41.13;25.75;;;-2.10;99.90;;;;;;5050693;28;20242;-79
2022/12/15 05:36:47;;;;;;;40.40;26.50;;;-2.00;99.90;;;;;;5058076;28;20221;-80
2022/12/15 05:39:16;;;;;;;40.22;25.90;;;-2.20;99.90;;;;;;5047974;28;20234;-80
2022/12/15 05:41:43;;;;;;;36.78;24.83;;;-2.30;99.90;;;;;;5054403;28;20220;-80
2022/12/15 05:44:13;;;;;;;39.42;26.85;;;-2.30;99.90;;;;;;5053825;28;20263;-78
2022/12/15 05:46:41;;;;;;;33.58;24.23;;;-2.40;99.90;;;;;;5052277;28;20231;-78
2022/12/15 05:49:11;;;;;;;34.75;23.05;;;-2.40;99.90;;;;;;5052344;28;20734;-78
2022/12/15 05:51:41;;;;;;;44.28;26.67;;;-2.40;99.90;;;;;;5054129;28;20219;-79
2022/12/15 05:54:08;;;;;;;40.08;25.45;;;-2.40;99.90;;;;;;5052203;28;20216;-80
2022/12/15 05:56:36;;;;;;;35.95;22.65;;;-2.40;99.90;;;;;;5054393;28;20220;-80
2022/12/15 05:59:04;;;;;;;44.75;25.60;;;-2.40;99.90;;;;;;5060573;28;20286;-80
2022/12/15 06:01:32;;;;;;;47.67;26.90;;;-2.40;99.90;;;;;;5050386;28;20314;-78
2022/12/15 06:04:00;;;;;;;40.50;24.30;;;-2.40;99.90;;;;;;5065974;28;20227;-77
2022/12/15 06:06:28;;;;;;;41.83;25.63;;;-2.40;99.90;;;;;;5056084;28;20262;-78
2022/12/15 06:08:58;;;;;;;34.47;25.15;;;-2.40;99.90;;;;;;5062197;28;20698;-78
2022/12/15 06:11:25;;;;;;;38.10;24.10;;;-2.40;99.90;;;;;;5060602;28;20225;-78
2022/12/15 06:13:53;;;;;;;43.78;26.83;;;-2.40;99.90;;;;;;5057271;28;20303;-77
2022/12/15 06:16:24;;;;;;;35.70;23.80;;;-2.40;99.90;;;;;;5053158;28;20224;-78
2022/12/15 06:18:54;;;;;;;50.70;27.20;;;-2.40;99.90;;;;;;5054038;28;20282;-77
2022/12/15 06:21:24;;;;;;;41.53;25.48;;;-2.40;99.90;;;;;;5052445;28;20742;-77
2022/12/15 06:23:52;;;;;;;38.53;24.40;;;-2.40;99.90;;;;;;5047411;28;20224;-77
2022/12/15 06:26:22;;;;;;;42.97;25.00;;;-2.40;99.90;;;;;;5052282;28;20278;-77
2022/12/15 06:28:50;;;;;;;39.65;24.45;;;-2.50;99.90;;;;;;5052771;28;20220;-77
2022/12/15 06:31:21;;;;;;;37.40;23.60;;;-2.40;99.90;;;;;;5052602;28;20259;-76
2022/12/15 06:33:49;;;;;;;32.95;25.38;;;-2.50;99.90;;;;;;5051694;28;20227;-77
2022/12/15 06:36:17;;;;;;;37.30;24.42;;;-2.60;99.90;;;;;;5050910;28;20231;-78
2022/12/15 06:38:48;;;;;;;47.50;27.23;;;-2.60;99.90;;;;;;5054507;28;20230;-80
2022/12/15 06:41:18;;;;;;;51.08;24.90;;;-2.70;99.90;;;;;;5055688;28;20625;-80
2022/12/15 06:43:51;;;;;;;39.22;23.83;;;-2.70;99.90;;;;;;5056741;28;20678;-78
2022/12/15 06:46:18;;;;;;;38.72;25.55;;;-2.70;99.90;;;;;;5055726;28;20224;-78
2022/12/15 06:48:45;;;;;;;37.28;23.30;;;-2.80;99.90;;;;;;5044079;28;20253;-79
2022/12/15 06:51:13;;;;;;;38.58;24.48;;;-2.70;99.90;;;;;;5056804;28;20255;-78
2022/12/15 06:53:47;;;;;;;46.97;25.77;;;-2.70;99.90;;;;;;5055450;28;20259;-79
2022/12/15 06:56:18;;;;;;;40.25;26.58;;;-2.80;99.90;;;;;;5056198;28;20302;-79
2022/12/15 06:58:48;;;;;;;49.92;28.55;;;-2.80;99.90;;;;;;5056052;28;20987;-77
2022/12/15 07:01:17;;;;;;;46.92;30.05;;;-2.80;99.90;;;;;;5056199;28;20231;-78
2022/12/15 07:03:45;;;;;;;38.42;24.75;;;-2.80;99.90;;;;;;5062252;28;20240;-79
2022/12/15 07:06:14;;;;;;;41.08;24.67;;;-2.80;99.90;;;;;;5055798;28;20298;-79
2022/12/15 07:08:41;;;;;;;43.88;26.80;;;-2.80;99.90;;;;;;5055369;28;20216;-78
2022/12/15 07:11:14;;;;;;;40.10;24.48;;;-2.80;99.90;;;;;;5054076;28;20220;-78
2022/12/15 07:13:41;;;;;;;34.92;21.65;;;-2.80;99.90;;;;;;5061440;28;20741;-78
2022/12/15 07:16:09;;;;;;;44.42;26.00;;;-2.90;99.90;;;;;;5055453;28;20221;-76
2022/12/15 07:18:39;;;;;;;42.03;25.70;;;-2.90;99.90;;;;;;5056223;28;20304;-80
2022/12/15 07:21:08;;;;;;;38.95;25.80;;;-2.90;99.90;;;;;;5059257;28;20235;-76
2022/12/15 07:23:36;;;;;;;38.50;25.33;;;-2.90;99.90;;;;;;5055457;28;20229;-78
2022/12/15 07:26:05;;;;;;;41.45;28.40;;;-3.00;99.90;;;;;;5057838;28;20620;-78
2022/12/15 07:28:32;;;;;;;40.92;25.95;;;-3.00;99.90;;;;;;5056197;28;20229;-78
2022/12/15 07:31:03;;;;;;;39.05;23.80;;;-3.00;99.90;;;;;;5056045;28;20227;-77
2022/12/15 07:33:32;;;;;;;39.47;24.67;;;-3.00;99.90;;;;;;5056875;28;20253;-77
2022/12/15 07:36:04;;;;;;;41.25;22.40;;;-3.00;99.90;;;;;;5055964;28;20229;-78
2022/12/15 07:38:31;;;;;;;33.95;22.73;;;-3.00;99.90;;;;;;5056871;28;20310;-77
2022/12/15 07:41:02;;;;;;;33.08;22.52;;;-3.00;99.90;;;;;;5055629;28;20252;-77
2022/12/15 07:43:29;;;;;;;35.70;21.45;;;-3.00;99.90;;;;;;5057055;28;20225;-77
2022/12/15 07:45:57;;;;;;;46.85;26.70;;;-2.90;99.90;;;;;;5056603;28;20307;-77
2022/12/15 07:48:24;;;;;;;36.97;23.67;;;-3.00;99.90;;;;;;5056663;28;20255;-77
2022/12/15 07:50:56;;;;;;;39.75;24.15;;;-3.00;99.90;;;;;;5055164;28;20229;-79
2022/12/15 07:53:25;;;;;;;33.92;20.10;;;-2.90;99.90;;;;;;5056600;28;20243;-78
2022/12/15 07:56:00;;;;;;;37.20;22.92;;;-2.90;99.90;;;;;;5055503;28;20286;-78
2022/12/15 07:58:28;;;;;;;56.70;24.58;;;-2.90;99.90;;;;;;5056043;28;20236;-78
2022/12/15 08:00:59;;;;;;;32.08;22.70;;;-2.90;99.90;;;;;;5054850;28;20244;-77
2022/12/15 08:03:29;;;;;;;36.70;22.67;;;-2.90;99.90;;;;;;5055252;28;20232;-81
2022/12/15 08:05:57;;;;;;;39.30;22.25;;;-2.90;99.90;;;;;;5053941;28;20319;-78
2022/12/15 08:08:29;;;;;;;36.40;21.20;;;-2.90;99.90;;;;;;5054256;28;20304;-77
2022/12/15 08:10:56;;;;;;;35.63;20.52;;;-2.90;99.90;;;;;;5054746;28;20229;-78
2022/12/15 08:13:23;;;;;;;37.97;22.75;;;-3.00;99.90;;;;;;5055239;28;20220;-80
2022/12/15 08:15:53;;;;;;;28.33;20.73;;;-3.00;99.90;;;;;;5055020;28;20306;-78
2022/12/15 08:18:21;;;;;;;32.92;21.27;;;-3.10;99.90;;;;;;5055740;28;20692;-79
2022/12/15 08:20:48;;;;;;;34.72;21.27;;;-3.10;99.90;;;;;;5054727;28;20494;-78
2022/12/15 08:23:15;;;;;;;36.40;22.30;;;-3.10;99.90;;;;;;5054883;28;20274;-77
2022/12/15 08:25:43;;;;;;;35.13;23.15;;;-3.00;99.90;;;;;;5054950;28;20304;-77
2022/12/15 08:28:10;;;;;;;32.38;21.85;;;-3.10;99.90;;;;;;5053991;28;20660;-78
2022/12/15 08:30:37;;;;;;;38.55;22.63;;;-3.00;99.90;;;;;;5054585;28;20239;-78
2022/12/15 08:33:05;;;;;;;30.08;22.33;;;-3.00;99.90;;;;;;5054237;28;20299;-77
2022/12/15 08:35:32;;;;;;;40.97;25.17;;;-3.00;99.90;;;;;;5053877;28;20239;-76
2022/12/15 08:38:17;;;;;;;39.10;24.05;;;-2.90;99.90;;;;;;5053173;28;20228;-76
2022/12/15 08:40:49;;;;;;;37.28;22.38;;;-2.90;99.90;;;;;;5049117;28;20228;-77
2022/12/15 08:43:16;;;;;;;31.60;20.90;;;-2.90;99.90;;;;;;5054217;28;20307;-77
2022/12/15 08:45:44;;;;;;;37.08;24.02;;;-2.80;99.90;;;;;;5053814;28;20576;-77
2022/12/15 08:48:11;;;;;;;46.10;26.52;;;-2.70;99.90;;;;;;5053970;28;20245;-78
2022/12/15 08:50:38;;;;;;;39.65;25.25;;;-2.60;99.90;;;;;;5053856;28;20319;-77
2022/12/15 08:53:05;;;;;;;42.78;24.13;;;-2.60;99.90;;;;;;5054596;28;20243;-77
2022/12/15 08:55:34;;;;;;;32.53;21.83;;;-2.50;99.90;;;;;;5054712;28;20286;-77
2022/12/15 08:58:03;;;;;;;42.25;22.58;;;-2.50;99.90;;;;;;5053872;28;20220;-77
2022/12/15 09:00:30;;;;;;;32.67;22.33;;;-2.40;99.90;;;;;;5054167;28;20730;-77
2022/12/15 09:03:00;;;;;;;40.20;24.67;;;-2.40;99.90;;;;;;5053181;28;20240;-77
2022/12/15 09:05:28;;;;;;;32.53;22.25;;;-2.30;99.90;;;;;;5054327;28;20307;-77
2022/12/15 09:07:57;;;;;;;34.90;23.63;;;-2.30;99.90;;;;;;5053754;28;20220;-77
2022/12/15 09:10:24;;;;;;;40.63;24.15;;;-2.40;99.90;;;;;;5054390;28;20316;-77
2022/12/15 09:12:55;;;;;;;35.83;22.67;;;-2.30;99.90;;;;;;5042075;28;20300;-79
2022/12/15 09:15:23;;;;;;;34.60;21.75;;;-2.30;99.90;;;;;;5055124;28;20783;-78
2022/12/15 09:17:50;;;;;;;33.80;21.05;;;-2.20;99.90;;;;;;5053798;28;20267;-79
2022/12/15 09:20:17;;;;;;;33.22;22.25;;;-2.30;99.90;;;;;;5053698;28;20490;-79
2022/12/15 09:22:46;;;;;;;35.45;23.17;;;-2.30;99.90;;;;;;5052828;28;20294;-79
2022/12/15 09:25:16;;;;;;;35.67;22.63;;;-2.20;99.90;;;;;;5054497;28;20278;-78
2022/12/15 09:27:47;;;;;;;32.15;24.00;;;-2.20;99.90;;;;;;5045031;28;20549;-79
2022/12/15 09:30:14;;;;;;;36.75;24.95;;;-2.10;99.90;;;;;;5053983;28;20741;-77
2022/12/15 09:32:42;;;;;;;35.00;23.65;;;-2.20;99.90;;;;;;5052942;28;20358;-77
2022/12/15 09:35:09;;;;;;;36.00;22.95;;;-2.20;99.90;;;;;;5053439;28;20225;-77
2022/12/15 09:37:39;;;;;;;35.80;24.67;;;-2.20;99.90;;;;;;5052903;28;20263;-77
2022/12/15 09:40:07;;;;;;;34.40;22.42;;;-2.10;99.90;;;;;;5044743;28;20623;-77
2022/12/15 09:42:34;;;;;;;37.13;22.92;;;-2.10;99.90;;;;;;5052210;28;20312;-79
2022/12/15 09:45:05;;;;;;;40.30;26.02;;;-2.00;99.90;;;;;;5053402;28;20626;-78
2022/12/15 09:47:42;;;;;;;43.30;27.65;;;-1.90;99.90;;;;;;5052901;28;20311;-77
2022/12/15 09:50:14;;;;;;;35.55;23.95;;;-1.80;99.90;;;;;;5052448;28;20224;-78
2022/12/15 09:52:48;;;;;;;40.00;24.92;;;-1.80;99.90;;;;;;5053217;28;20245;-78
2022/12/15 09:55:21;;;;;;;44.22;27.23;;;-1.70;99.90;;;;;;5052267;28;20224;-78
2022/12/15 09:57:56;;;;;;;43.05;26.40;;;-1.60;99.90;;;;;;5054140;28;20221;-79
2022/12/15 10:00:27;;;;;;;35.53;24.73;;;-1.60;99.90;;;;;;5052770;28;20224;-78
2022/12/15 10:03:29;;;;;;;36.67;22.52;;;-1.50;99.90;;;;;;5054017;28;20252;-78
2022/12/15 10:06:09;;;;;;;40.80;22.42;;;-1.50;99.90;;;;;;5054964;28;20307;-78
2022/12/15 10:08:39;;;;;;;33.33;21.50;;;-1.40;99.90;;;;;;5053329;28;20723;-78
2022/12/15 10:11:17;;;;;;;35.63;23.13;;;-1.40;99.90;;;;;;5053173;28;20383;-78
2022/12/15 10:13:52;;;;;;;33.72;21.95;;;-1.30;99.90;;;;;;5056616;28;20277;-79
2022/12/15 10:16:31;;;;;;;31.90;21.83;;;-1.20;99.90;;;;;;5057400;28;20242;-78
2022/12/15 10:19:07;;;;;;;36.35;23.05;;;-1.20;99.90;;;;;;5057871;28;20224;-78
2022/12/15 10:21:38;;;;;;;34.08;20.92;;;-1.10;99.90;;;;;;5050115;28;20310;-78
2022/12/15 10:24:15;;;;;;;36.10;22.75;;;-1.00;99.90;;;;;;5057393;28;20248;-77
2022/12/15 10:26:43;;;;;;;36.78;22.02;;;-0.90;99.90;;;;;;5061726;28;20295;-78
2022/12/15 10:29:24;;;;;;;33.85;22.23;;;-0.90;99.90;;;;;;5060031;28;20250;-78
2022/12/15 10:31:57;;;;;;;35.30;21.85;;;-0.90;99.90;;;;;;5078689;28;20228;-77
2022/12/15 10:34:27;;;;;;;33.33;21.50;;;-0.80;99.90;;;;;;5081158;28;20255;-76
2022/12/15 10:36:56;;;;;;;30.90;20.75;;;-0.70;99.90;;;;;;5080420;28;20227;-78
2022/12/15 10:39:38;;;;;;;30.58;22.10;;;-0.70;99.90;;;;;;5083650;28;20246;-79
2022/12/15 10:42:26;;;;;;;33.40;22.33;;;-0.60;99.90;;;;;;5084056;28;20243;-77
2022/12/15 10:44:56;;;;;;;32.75;21.52;;;-0.50;99.90;;;;;;5079329;28;20285;-77
2022/12/15 10:47:25;;;;;;;32.78;21.67;;;-0.50;99.90;;;;;;5077434;28;20250;-79
2022/12/15 10:49:53;;;;;;;31.83;22.80;;;-0.40;99.90;;;;;;5092725;28;20239;-80
2022/12/15 10:52:34;;;;;;;36.03;22.23;;;-0.40;99.90;;;;;;5075256;28;20224;-77
2022/12/15 10:55:02;;;;;;;38.13;22.55;;;-0.30;99.90;;;;;;5090159;28;20219;-77
2022/12/15 10:57:32;;;;;;;33.17;22.17;;;-0.30;99.90;;;;;;5092111;28;20224;-79
2022/12/15 11:00:26;;;;;;;30.67;21.98;;;-0.20;99.90;;;;;;5083685;28;20220;-78
2022/12/15 11:02:54;;;;;;;38.10;23.27;;;-0.10;99.90;;;;;;5077828;28;20262;-77
2022/12/15 11:05:24;;;;;;;38.80;23.70;;;-0.10;99.90;;;;;;5076209;28;20228;-78
2022/12/15 11:07:56;;;;;;;36.95;24.00;;;-0.10;99.90;;;;;;5077673;28;20220;-79
2022/12/15 11:12:50;;;;;;;37.63;22.65;;;-0.10;99.90;;;;;;5062968;28;20374;-78
2022/12/15 11:13:17;;;;;;;39.25;24.77;;;0.00;99.90;;;;;;5075085;28;20671;-78
2022/12/15 11:15:47;;;;;;;36.05;24.45;;;0.00;99.90;;;;;;5076193;28;20220;-78
2022/12/15 11:18:35;;;;;;;39.90;24.33;;;0.00;99.90;;;;;;5075586;28;20220;-78
2022/12/15 11:21:09;;;;;;;41.58;23.40;;;0.10;99.90;;;;;;5075612;28;20224;-78
2022/12/15 11:23:57;;;;;;;30.40;22.02;;;0.20;99.90;;;;;;5074888;28;20224;-78
2022/12/15 11:26:35;;;;;;;40.30;22.98;;;0.20;99.90;;;;;;5075349;28;20228;-79
2022/12/15 11:29:10;;;;;;;30.20;22.58;;;0.30;99.90;;;;;;5065398;28;20244;-78
2022/12/15 11:31:40;;;;;;;33.38;21.90;;;0.40;99.90;;;;;;5055242;28;20297;-78
2022/12/15 11:34:13;;;;;;;30.67;21.80;;;0.40;99.90;;;;;;5045512;28;20224;-78
2022/12/15 11:36:55;;;;;;;29.75;22.73;;;0.40;99.90;;;;;;5059711;28;20235;-79
2022/12/15 11:39:37;;;;;;;36.88;24.40;;;0.50;99.90;;;;;;5053979;28;20289;-77
2022/12/15 11:42:11;;;;;;;28.60;20.52;;;0.60;99.90;;;;;;5055568;28;20252;-78
2022/12/15 11:44:51;;;;;;;33.47;20.52;;;0.60;99.90;;;;;;5054615;28;20587;-77
2022/12/15 11:47:24;;;;;;;30.67;21.10;;;0.70;99.90;;;;;;5055902;28;20387;-78
2022/12/15 11:50:11;;;;;;;29.95;21.70;;;0.70;99.90;;;;;;5055161;28;20224;-78
2022/12/15 11:53:10;;;;;;;32.92;24.20;;;0.70;99.90;;;;;;5054836;28;20696;-78
2022/12/15 11:55:47;;;;;;;35.13;24.30;;;0.80;99.90;;;;;;5048674;28;20695;-77
2022/12/15 11:58:38;;;;;;;32.20;22.05;;;0.80;99.90;;;;;;5055373;28;20284;-79
2022/12/15 12:01:19;;;;;;;38.47;23.42;;;0.80;99.90;;;;;;5047929;28;20217;-79
2022/12/15 12:04:03;;;;;;;31.77;21.50;;;0.80;99.90;;;;;;5036063;28;20255;-78
2022/12/15 12:06:38;;;;;;;28.25;20.95;;;0.90;99.90;;;;;;5034961;28;20213;-78
2022/12/15 12:09:28;;;;;;;32.80;20.92;;;1.00;99.90;;;;;;5042579;28;20234;-79
2022/12/15 12:12:04;;;;;;;34.35;22.40;;;1.00;99.90;;;;;;5034712;28;20221;-79
2022/12/15 12:14:44;;;;;;;30.38;21.20;;;1.00;99.90;;;;;;5034584;28;20332;-78
2022/12/15 12:17:21;;;;;;;34.05;19.95;;;1.10;99.90;;;;;;5054224;28;20228;-78
2022/12/15 12:19:53;;;;;;;28.90;19.55;;;1.10;99.90;;;;;;5054074;28;20228;-79
2022/12/15 12:22:29;;;;;;;32.55;21.73;;;1.10;99.90;;;;;;5054739;28;20554;-79
2022/12/15 12:25:10;;;;;;;30.83;20.70;;;1.20;99.90;;;;;;5053723;28;20378;-78
2022/12/15 12:27:47;;;;;;;27.35;19.92;;;1.20;99.90;;;;;;5056904;28;20220;-78
2022/12/15 12:30:17;;;;;;;30.10;20.58;;;1.20;99.90;;;;;;5048279;28;20603;-78
2022/12/15 12:33:04;;;;;;;25.85;18.63;;;1.20;99.90;;;;;;5048663;28;20221;-78
2022/12/15 12:35:44;;;;;;;28.13;18.25;;;1.20;99.90;;;;;;5052272;28;20229;-78
2022/12/15 12:38:19;;;;;;;27.27;18.98;;;1.20;99.90;;;;;;5050718;28;20239;-78
2022/12/15 12:40:55;;;;;;;27.83;18.75;;;1.30;99.90;;;;;;5047656;28;20328;-78
2022/12/15 12:43:32;;;;;;;27.52;19.38;;;1.30;99.90;;;;;;5034265;28;20312;-77
2022/12/15 12:46:05;;;;;;;28.27;19.13;;;1.40;99.90;;;;;;5033148;28;20236;-77
2022/12/15 12:48:38;;;;;;;34.83;22.45;;;1.40;99.90;;;;;;5025381;28;20549;-78
2022/12/15 12:51:24;;;;;;;34.38;22.25;;;1.40;99.90;;;;;;5033813;28;20248;-77
2022/12/15 12:53:55;;;;;;;33.47;24.38;;;1.40;99.90;;;;;;5069498;28;20224;-77
2022/12/15 12:56:36;;;;;;;32.92;22.58;;;1.50;99.90;;;;;;5073291;28;20311;-77
2022/12/15 12:59:25;;;;;;;28.63;18.83;;;1.50;99.90;;;;;;5057810;28;20233;-78
2022/12/15 13:01:52;;;;;;;26.05;19.48;;;1.50;99.90;;;;;;5043241;28;20324;-79
2022/12/15 13:04:38;;;;;;;26.92;17.85;;;1.50;99.90;;;;;;5071451;28;20240;-76
2022/12/15 13:07:30;;;;;;;28.75;19.02;;;1.60;99.90;;;;;;5070740;28;20254;-76
2022/12/15 14:33:30;;;;;;;33.22;21.73;;;2.00;99.90;;;;;;5071959;28;20234;-80
2022/12/15 14:36:00;;;;;;;29.95;21.98;;;2.00;99.90;;;;;;5074632;28;20656;-77
2022/12/15 14:38:38;;;;;;;26.60;20.38;;;2.00;99.90;;;;;;5072820;28;20254;-76
2022/12/15 14:41:06;;;;;;;31.55;20.15;;;2.00;99.90;;;;;;5072696;28;20227;-77
2022/12/15 14:43:37;;;;;;;31.95;21.85;;;2.00;99.90;;;;;;5071881;28;20232;-77
2022/12/15 14:46:14;;;;;;;29.48;20.05;;;2.00;99.90;;;;;;5072150;28;20732;-78
2022/12/15 14:49:02;;;;;;;28.85;20.55;;;2.00;99.90;;;;;;5060547;28;20293;-76
2022/12/15 14:51:41;;;;;;;28.25;21.15;;;2.00;99.90;;;;;;5074444;28;20250;-78
2022/12/15 14:54:30;;;;;;;36.95;22.83;;;2.00;99.90;;;;;;5074382;28;20682;-77
2022/12/15 14:57:00;;;;;;;28.70;18.70;;;2.00;99.90;;;;;;5074007;28;20231;-77
2022/12/15 14:59:36;;;;;;;36.00;24.77;;;1.90;99.90;;;;;;5074642;28;20230;-78
2022/12/15 15:02:14;;;;;;;35.65;21.20;;;1.90;99.90;;;;;;5075517;28;20254;-79
2022/12/15 15:04:55;;;;;;;28.52;21.05;;;1.90;99.90;;;;;;5077188;28;20306;-79
2022/12/15 15:07:23;;;;;;;32.70;21.50;;;1.90;99.90;;;;;;5077469;28;20219;-79
2022/12/15 15:09:51;;;;;;;36.85;26.42;;;1.90;99.90;;;;;;5076338;28;20259;-78
2022/12/15 15:12:20;;;;;;;31.25;22.40;;;1.90;99.90;;;;;;5073958;28;20293;-79
2022/12/15 15:14:50;;;;;;;33.25;23.52;;;1.90;99.90;;;;;;5078194;28;20283;-78
2022/12/15 15:17:27;;;;;;;34.90;26.90;;;1.80;99.90;;;;;;5067609;28;20224;-78
2022/12/15 15:19:59;;;;;;;32.00;21.70;;;1.80;99.90;;;;;;5074494;28;20307;-77
2022/12/15 15:22:34;;;;;;;36.40;23.00;;;1.80;99.90;;;;;;5075519;28;20232;-79
2022/12/15 15:25:25;;;;;;;30.50;23.52;;;1.80;99.90;;;;;;5077795;28;20216;-79
2022/12/15 15:27:52;;;;;;;32.63;22.85;;;1.80;99.90;;;;;;5076723;28;20224;-79
2022/12/15 15:30:22;;;;;;;38.55;24.27;;;1.80;99.90;;;;;;5077993;28;20231;-78
2022/12/15 15:32:52;;;;;;;30.15;21.33;;;1.70;99.90;;;;;;5077245;28;20625;-77
2022/12/15 15:35:22;;;;;;;28.42;20.77;;;1.70;99.90;;;;;;5077935;28;20604;-77
2022/12/15 15:37:49;;;;;;;29.55;21.42;;;1.70;99.90;;;;;;5076840;28;20239;-78
2022/12/15 15:40:24;;;;;;;31.27;21.15;;;1.70;99.90;;;;;;5066718;28;20232;-77
2022/12/15 15:42:51;;;;;;;33.97;22.02;;;1.60;99.90;;;;;;5065916;28;20228;-79
2022/12/15 15:45:18;;;;;;;29.08;21.13;;;1.60;99.90;;;;;;5067652;28;20259;-77
2022/12/15 15:47:48;;;;;;;30.85;21.38;;;1.60;99.90;;;;;;5077108;28;20226;-77
2022/12/15 15:50:31;;;;;;;27.70;20.35;;;1.60;99.90;;;;;;5065757;28;20268;-77
2022/12/15 15:52:58;;;;;;;27.50;20.27;;;1.60;99.90;;;;;;5069337;28;20273;-78
2022/12/15 15:55:29;;;;;;;28.13;20.98;;;1.60;99.90;;;;;;5079747;28;20242;-78
2022/12/15 15:57:57;;;;;;;30.42;21.77;;;1.60;99.90;;;;;;5081640;28;20668;-77
2022/12/15 16:00:27;;;;;;;32.55;21.67;;;1.60;99.90;;;;;;5072471;28;20220;-77
2022/12/15 16:02:54;;;;;;;26.90;19.80;;;1.60;99.90;;;;;;5084499;28;20227;-78
2022/12/15 16:05:22;;;;;;;26.45;19.08;;;1.60;99.90;;;;;;5084799;28;20232;-78
2022/12/15 16:07:50;;;;;;;27.33;20.27;;;1.60;99.90;;;;;;5084501;28;20220;-77
2022/12/15 16:10:20;;;;;;;33.25;20.60;;;1.60;99.90;;;;;;5086829;28;20236;-77
2022/12/15 16:13:01;;;;;;;31.70;22.77;;;1.60;99.90;;;;;;5087236;28;20223;-79
2022/12/15 16:15:31;;;;;;;28.73;21.05;;;1.60;99.90;;;;;;5078607;28;20287;-77
2022/12/15 16:18:00;;;;;;;29.52;20.75;;;1.50;99.90;;;;;;5087079;28;20303;-79
2022/12/15 16:20:36;;;;;;;33.78;24.80;;;1.50;99.90;;;;;;5087915;28;20266;-78
2022/12/15 16:23:12;;;;;;;32.67;21.45;;;1.50;99.90;;;;;;5087212;28;20311;-77
2022/12/15 16:25:42;;;;;;;31.80;20.35;;;1.40;99.90;;;;;;5086542;28;20223;-78
2022/12/15 16:28:16;;;;;;;30.17;23.40;;;1.40;99.90;;;;;;5081445;28;20291;-78
2022/12/15 16:30:43;;;;;;;33.38;22.20;;;1.30;99.90;;;;;;5060183;28;20232;-77
2022/12/15 16:33:11;;;;;;;33.85;23.58;;;1.30;99.90;;;;;;5077808;28;20236;-78
2022/12/15 16:35:40;;;;;;;34.17;24.45;;;1.30;99.90;;;;;;5074951;28;20303;-79
2022/12/15 16:38:19;;;;;;;31.42;21.48;;;1.40;99.90;;;;;;5074915;28;20281;-79
2022/12/15 16:40:53;;;;;;;39.00;23.88;;;1.30;99.90;;;;;;5064794;28;20289;-79
2022/12/15 16:43:26;;;;;;;27.63;20.10;;;1.30;99.90;;;;;;5074694;28;20691;-79
2022/12/15 16:45:54;;;;;;;32.35;20.80;;;1.30;99.90;;;;;;5073676;28;20640;-79
2022/12/15 16:48:22;;;;;;;31.13;21.05;;;1.30;99.90;;;;;;5074015;28;20569;-80